Time;durP1;ratioP1;P1;durP2;ratioP2;P2;SDS_P1;SDS_P2;PMS_P1;PMS_P2;Temp;Humidity;BMP_temperature;BMP_pressure;BME280_temperature;BME280_humidity;BME280_pressure;Samples;Min_cycle;Max_cycle;Signal;HPM_P1;HPM_P2
2022/03/15 00:00:49;;;;;;;38.40;23.10;;;13.90;60.50;;;;;;12936526;23;20186;-85
2022/03/15 00:05:52;;;;;;;27.47;17.13;;;13.50;58.50;;;;;;12916560;23;20170;-85
2022/03/15 00:10:57;;;;;;;26.00;17.03;;;13.50;61.90;;;;;;12916305;23;20205;-85
2022/03/15 00:16:01;;;;;;;30.50;17.87;;;13.80;61.40;;;;;;12935148;23;20213;-85
2022/03/15 00:21:09;;;;;;;27.60;17.97;;;13.90;61.50;;;;;;12916313;23;20186;-85
2022/03/15 00:26:11;;;;;;;27.70;16.73;;;13.90;60.30;;;;;;12931937;23;20167;-85
2022/03/15 00:31:14;;;;;;;27.93;16.97;;;14.20;60.40;;;;;;12917849;23;20510;-85
2022/03/15 00:36:16;;;;;;;27.60;17.73;;;14.20;60.20;;;;;;12917989;23;20225;-85
2022/03/15 00:41:20;;;;;;;27.23;16.53;;;14.40;59.90;;;;;;12915484;23;20256;-85
2022/03/15 00:46:22;;;;;;;27.83;16.30;;;14.50;59.50;;;;;;12915392;23;20228;-85
2022/03/15 00:51:25;;;;;;;26.27;16.23;;;14.60;59.30;;;;;;12915640;23;20240;-85
2022/03/15 00:56:29;;;;;;;27.30;15.73;;;14.70;59.20;;;;;;12890822;23;20174;-85
2022/03/15 01:01:32;;;;;;;25.43;15.13;;;14.80;58.70;;;;;;12916459;23;20224;-85
2022/03/15 01:06:37;;;;;;;25.53;15.33;;;14.80;58.80;;;;;;12915877;23;20235;-84
2022/03/15 01:11:43;;;;;;;24.13;15.57;;;14.70;58.90;;;;;;12915029;23;20249;-84
2022/03/15 01:16:45;;;;;;;26.53;14.70;;;14.50;59.40;;;;;;12917459;23;20217;-85
2022/03/15 01:21:49;;;;;;;21.97;14.57;;;14.80;59.00;;;;;;12915594;23;20543;-85
2022/03/15 01:26:52;;;;;;;24.47;14.97;;;14.80;59.10;;;;;;12916086;23;20571;-84
2022/03/15 01:31:55;;;;;;;22.73;15.77;;;14.40;59.70;;;;;;12918090;23;20166;-85
2022/03/15 01:36:58;;;;;;;20.33;13.87;;;14.10;60.50;;;;;;12935848;23;20213;-85
2022/03/15 01:42:03;;;;;;;19.90;12.90;;;14.20;60.40;;;;;;12915594;23;20803;-85
2022/03/15 01:47:06;;;;;;;19.20;13.07;;;14.30;60.30;;;;;;12890845;23;20189;-85
2022/03/15 01:52:12;;;;;;;18.90;12.97;;;14.20;60.50;;;;;;12916053;23;20485;-84
2022/03/15 01:57:15;;;;;;;20.67;13.70;;;14.20;60.40;;;;;;12927385;23;20186;-85
2022/03/15 02:02:18;;;;;;;19.30;12.60;;;14.30;60.40;;;;;;12915380;23;20568;-85
2022/03/15 02:07:21;;;;;;;22.97;14.13;;;14.50;60.10;;;;;;12915073;23;20221;-84
2022/03/15 02:12:23;;;;;;;18.77;13.30;;;14.40;60.30;;;;;;12890049;23;20236;-84
2022/03/15 02:17:25;;;;;;;19.00;12.10;;;14.20;60.80;;;;;;12914870;23;20194;-84
2022/03/15 02:22:28;;;;;;;19.90;12.77;;;13.50;62.30;;;;;;12915041;23;20217;-85
2022/03/15 02:27:31;;;;;;;16.50;11.53;;;13.70;62.00;;;;;;12917500;23;20232;-85
2022/03/15 02:32:34;;;;;;;16.57;11.50;;;13.40;62.80;;;;;;12892449;23;20174;-85
2022/03/15 02:37:36;;;;;;;20.00;12.83;;;13.40;62.80;;;;;;12918285;23;20198;-85
2022/03/15 02:42:39;;;;;;;18.90;11.80;;;13.40;62.80;;;;;;12917963;23;20202;-85
2022/03/15 02:47:43;;;;;;;19.87;11.83;;;12.30;65.70;;;;;;12920071;23;20171;-85
2022/03/15 02:52:46;;;;;;;17.47;12.03;;;11.20;68.80;;;;;;12918062;23;20178;-85
2022/03/15 02:57:49;;;;;;;14.87;11.07;;;10.70;71.00;;;;;;12919830;23;20186;-85
2022/03/15 03:02:51;;;;;;;15.47;11.17;;;11.30;70.20;;;;;;12917862;23;20233;-85
2022/03/15 03:07:54;;;;;;;13.67;10.77;;;10.90;71.10;;;;;;12918320;23;20204;-85
2022/03/15 03:12:57;;;;;;;15.33;11.30;;;10.70;71.80;;;;;;12927065;23;20486;-85
2022/03/15 03:17:59;;;;;;;16.30;10.93;;;11.30;70.80;;;;;;12917512;23;20194;-85
2022/03/15 03:23:02;;;;;;;17.97;11.57;;;11.60;69.20;;;;;;12919407;23;20973;-85
2022/03/15 03:28:05;;;;;;;17.07;11.10;;;11.50;69.30;;;;;;12917698;23;20182;-85
2022/03/15 03:33:07;;;;;;;16.70;10.63;;;11.70;69.30;;;;;;12917696;23;20218;-85
2022/03/15 03:38:11;;;;;;;16.07;10.33;;;12.20;67.60;;;;;;12916765;23;20229;-85
2022/03/15 03:43:14;;;;;;;16.03;10.40;;;12.90;65.60;;;;;;12917276;23;20171;-85
2022/03/15 03:48:17;;;;;;;16.07;9.93;;;13.00;65.20;;;;;;12918016;23;20222;-85
2022/03/15 03:53:24;;;;;;;14.13;10.23;;;13.50;63.90;;;;;;12918610;23;20236;-85
2022/03/15 03:58:26;;;;;;;15.63;9.50;;;13.90;62.90;;;;;;12916529;23;20191;-85
2022/03/15 04:03:30;;;;;;;15.07;9.70;;;14.00;62.60;;;;;;12918615;23;20170;-85
2022/03/15 04:08:36;;;;;;;13.90;8.93;;;14.10;62.40;;;;;;12892043;23;20182;-85
2022/03/15 04:13:41;;;;;;;16.20;9.70;;;14.10;62.20;;;;;;12919087;23;20253;-85
2022/03/15 04:18:44;;;;;;;14.10;9.10;;;13.90;62.90;;;;;;12916601;23;20711;-85
2022/03/15 04:23:46;;;;;;;14.37;10.23;;;13.70;63.00;;;;;;12916063;23;20174;-85
2022/03/15 04:28:49;;;;;;;18.37;12.10;;;13.60;63.40;;;;;;12918860;23;20806;-85
2022/03/15 04:33:51;;;;;;;14.87;9.67;;;13.10;64.60;;;;;;12890675;23;20509;-85
2022/03/15 04:38:55;;;;;;;15.07;9.83;;;12.70;65.90;;;;;;12915937;23;20194;-85
2022/03/15 04:43:57;;;;;;;18.90;11.13;;;12.70;65.90;;;;;;12915661;23;20166;-85
2022/03/15 04:49:00;;;;;;;38.67;20.93;;;12.90;65.50;;;;;;12917620;23;20166;-86
2022/03/15 04:54:03;;;;;;;42.37;21.97;;;12.50;67.40;;;;;;12934853;23;20694;-86
2022/03/15 04:59:06;;;;;;;49.83;23.73;;;11.40;70.60;;;;;;12917384;23;20182;-85
2022/03/15 05:04:09;;;;;;;35.07;20.27;;;10.70;72.60;;;;;;12915257;23;20175;-86
2022/03/15 05:09:11;;;;;;;20.03;13.07;;;10.30;74.80;;;;;;12917078;23;20166;-86
2022/03/15 05:14:15;;;;;;;26.43;16.43;;;10.20;75.00;;;;;;12915164;23;20178;-86
2022/03/15 05:19:17;;;;;;;31.30;17.77;;;10.40;74.70;;;;;;12916540;23;20664;-86
2022/03/15 05:24:20;;;;;;;27.23;17.40;;;10.30;75.20;;;;;;12914779;23;20219;-86
2022/03/15 05:29:22;;;;;;;27.83;15.90;;;10.10;76.30;;;;;;12915228;23;20210;-86
2022/03/15 05:34:26;;;;;;;41.20;22.47;;;10.00;76.60;;;;;;12916854;23;20170;-85
2022/03/15 05:39:28;;;;;;;22.23;14.03;;;9.70;78.50;;;;;;12930123;23;20248;-85
2022/03/15 05:44:32;;;;;;;14.47;10.37;;;10.20;76.30;;;;;;12914481;23;20174;-85
2022/03/15 05:49:34;;;;;;;14.90;10.37;;;11.20;73.00;;;;;;12916216;23;20216;-85
2022/03/15 05:54:37;;;;;;;25.30;15.73;;;11.10;74.30;;;;;;12916171;23;20220;-85
2022/03/15 05:59:46;;;;;;;14.57;9.63;;;10.80;75.90;;;;;;12916310;23;21069;-85
2022/03/15 06:04:48;;;;;;;23.67;14.80;;;10.70;75.50;;;;;;12938283;23;20217;-85
2022/03/15 06:09:52;;;;;;;25.03;15.87;;;11.10;74.50;;;;;;12919716;23;20248;-85
2022/03/15 06:14:54;;;;;;;17.20;11.43;;;10.80;77.70;;;;;;12920012;23;20296;-85
2022/03/15 06:19:58;;;;;;;18.87;11.50;;;10.80;75.30;;;;;;12936561;23;20525;-85
2022/03/15 06:25:05;;;;;;;11.63;8.33;;;11.20;74.10;;;;;;12936705;23;20163;-85
2022/03/15 06:30:08;;;;;;;12.87;8.17;;;11.90;71.40;;;;;;12892739;23;20182;-85
2022/03/15 06:35:13;;;;;;;12.70;8.60;;;12.40;69.80;;;;;;12937002;23;20171;-85
2022/03/15 06:40:29;;;;;;;15.20;10.13;;;13.20;67.10;;;;;;12918098;23;20244;-85
2022/03/15 06:45:32;;;;;;;28.50;19.63;;;12.70;68.80;;;;;;12936450;23;20629;-85
2022/03/15 06:50:36;;;;;;;11.50;8.20;;;12.60;72.80;;;;;;12919768;23;20166;-85
2022/03/15 06:55:38;;;;;;;18.83;12.90;;;12.00;70.60;;;;;;12919394;23;20221;-85
2022/03/15 07:00:41;;;;;;;23.53;15.10;;;12.70;68.80;;;;;;12936075;23;20217;-84
2022/03/15 07:05:46;;;;;;;21.03;12.13;;;12.60;69.90;;;;;;12919772;23;20162;-96
2022/03/15 07:10:55;;;;;;;22.17;13.07;;;9.90;90.10;;;;;;12833815;22;20202;-82
2022/03/15 07:15:57;;;;;;;22.43;13.30;;;12.60;76.90;;;;;;12853781;23;20175;-81
2022/03/15 07:21:00;;;;;;;23.07;15.00;;;12.60;76.10;;;;;;12829998;23;20186;-81
2022/03/15 07:26:03;;;;;;;22.50;13.37;;;12.50;76.10;;;;;;12856059;23;20163;-80
2022/03/15 07:31:05;;;;;;;25.27;14.27;;;12.70;76.00;;;;;;12856393;23;20225;-80
2022/03/15 07:36:08;;;;;;;19.23;12.50;;;13.30;73.10;;;;;;12829607;23;20233;-81
2022/03/15 07:41:11;;;;;;;21.33;11.87;;;13.00;74.00;;;;;;12803354;23;20682;-81
2022/03/15 07:46:13;;;;;;;24.83;13.97;;;13.10;73.40;;;;;;12853944;23;20171;-80
2022/03/15 07:51:16;;;;;;;25.93;14.47;;;13.10;73.40;;;;;;12829572;23;20171;-81
2022/03/15 07:56:18;;;;;;;15.83;11.27;;;13.00;73.30;;;;;;12827572;23;20186;-81
2022/03/15 08:01:21;;;;;;;24.20;13.70;;;13.30;72.10;;;;;;12835684;22;20531;-83
2022/03/15 08:06:23;;;;;;;27.27;16.33;;;12.30;85.80;;;;;;12917293;23;20232;-85
2022/03/15 08:11:26;;;;;;;25.57;15.97;;;13.60;87.20;;;;;;12933490;23;20197;-84
2022/03/15 08:16:29;;;;;;;26.30;14.80;;;14.00;86.20;;;;;;12918241;23;20216;-84
2022/03/15 08:21:31;;;;;;;21.03;14.20;;;14.00;87.40;;;;;;12915037;23;20248;-84
2022/03/15 08:26:34;;;;;;;22.10;14.50;;;14.30;88.60;;;;;;12917198;23;20170;-84
2022/03/15 08:31:37;;;;;;;24.20;13.53;;;14.20;89.10;;;;;;12915730;23;20504;-84
2022/03/15 08:36:40;;;;;;;29.17;18.17;;;14.20;89.70;;;;;;12917868;23;20170;-84
2022/03/15 08:41:45;;;;;;;21.50;13.43;;;14.30;88.00;;;;;;12914961;23;20584;-84
2022/03/15 08:46:49;;;;;;;18.97;11.47;;;14.50;89.20;;;;;;12915382;23;20166;-84
2022/03/15 08:51:52;;;;;;;35.67;21.77;;;14.40;89.40;;;;;;12889918;23;20559;-84
2022/03/15 08:56:55;;;;;;;30.10;19.50;;;14.30;88.20;;;;;;12963972;22;20176;-85
2022/03/15 09:01:58;;;;;;;16.47;10.13;;;14.20;89.10;;;;;;12978013;22;20208;-84
2022/03/15 09:07:00;;;;;;;14.20;9.90;;;14.60;88.80;;;;;;12978242;22;20198;-85
2022/03/15 09:12:03;;;;;;;16.67;10.37;;;15.40;84.50;;;;;;12993611;22;20202;-85
2022/03/15 09:17:06;;;;;;;19.53;10.30;;;;;;;;;;12978855;22;20487;-84
2022/03/15 09:22:09;;;;;;;33.00;19.63;;;;;;;;;;12977199;22;20257;-85
2022/03/15 09:27:12;;;;;;;15.20;10.67;;;16.10;77.50;;;;;;12978360;22;20242;-85
2022/03/15 09:32:15;;;;;;;14.30;9.67;;;16.00;80.50;;;;;;12978928;22;20206;-85
2022/03/15 09:37:18;;;;;;;13.07;9.27;;;15.80;80.40;;;;;;12983095;22;20238;-84
2022/03/15 09:42:22;;;;;;;15.20;10.03;;;15.90;79.90;;;;;;12982802;22;20259;-83
2022/03/15 09:47:29;;;;;;;14.07;9.80;;;16.20;77.80;;;;;;12985015;22;20218;-84
2022/03/15 09:52:34;;;;;;;12.00;8.70;;;16.20;78.10;;;;;;13004765;22;20237;-85
2022/03/15 09:57:37;;;;;;;11.73;9.90;;;16.20;78.20;;;;;;12984102;22;20226;-84
2022/03/15 10:02:40;;;;;;;13.00;9.23;;;16.50;78.80;;;;;;12985528;22;20253;-85
2022/03/15 10:07:43;;;;;;;14.33;10.43;;;16.00;78.20;;;;;;12985760;22;20204;-85
2022/03/15 10:12:46;;;;;;;13.83;9.20;;;;;;;;;;12992396;22;20250;-85
2022/03/15 10:17:55;;;;;;;14.43;10.57;;;16.70;74.90;;;;;;12983492;22;20238;-84
2022/03/15 10:22:59;;;;;;;11.30;8.67;;;16.70;75.20;;;;;;12983148;22;20242;-85
2022/03/15 10:28:09;;;;;;;13.43;8.77;;;16.60;74.90;;;;;;12984442;22;20167;-84
2022/03/15 10:33:18;;;;;;;12.07;9.40;;;16.60;74.60;;;;;;12979130;22;20170;-85
2022/03/15 10:38:21;;;;;;;22.57;14.43;;;16.70;74.20;;;;;;12931868;23;20162;-85
2022/03/15 10:43:25;;;;;;;11.87;7.97;;;16.40;75.00;;;;;;12929842;23;20740;-84
2022/03/15 10:48:30;;;;;;;11.47;8.07;;;16.20;75.60;;;;;;12924384;23;20167;-84
2022/03/15 10:53:47;;;;;;;14.23;9.20;;;16.70;73.90;;;;;;12925728;23;20166;-84
2022/03/15 10:58:59;;;;;;;10.03;7.60;;;16.60;73.60;;;;;;12935553;23;20174;-84
2022/03/15 11:04:06;;;;;;;19.73;14.67;;;16.60;73.60;;;;;;12933441;23;20190;-84
2022/03/15 11:09:22;;;;;;;12.07;8.80;;;16.60;72.80;;;;;;12943254;23;20167;-84
2022/03/15 11:14:42;;;;;;;22.43;13.50;;;16.10;74.70;;;;;;12929699;23;20216;-84
2022/03/15 11:20:05;;;;;;;9.97;7.03;;;15.70;75.20;;;;;;12923435;23;20246;-84
2022/03/15 11:25:11;;;;;;;16.30;10.07;;;15.30;77.20;;;;;;12919005;23;20174;-84
2022/03/15 11:30:16;;;;;;;9.40;7.50;;;15.70;75.60;;;;;;12920287;23;20249;-84
2022/03/15 11:35:22;;;;;;;13.40;9.10;;;16.00;74.90;;;;;;12935015;23;20216;-84
2022/03/15 11:40:26;;;;;;;9.17;7.10;;;16.30;72.40;;;;;;12892408;23;20190;-84
2022/03/15 11:45:33;;;;;;;10.97;8.17;;;16.40;73.30;;;;;;12916329;23;20276;-84
2022/03/15 11:51:23;;;;;;;9.93;7.50;;;16.50;72.20;;;;;;12892361;23;20182;-86
2022/03/15 11:56:51;;;;;;;8.37;6.87;;;16.60;72.20;;;;;;12890000;23;20697;-85
2022/03/15 12:02:01;;;;;;;9.43;7.00;;;16.50;72.00;;;;;;12932541;23;20197;-85
2022/03/15 12:07:03;;;;;;;9.87;6.87;;;16.50;71.90;;;;;;12915152;23;20515;-85
2022/03/15 12:12:07;;;;;;;8.73;6.93;;;16.50;71.80;;;;;;12916132;23;20220;-83
2022/03/15 12:17:12;;;;;;;17.73;11.17;;;16.40;71.90;;;;;;12916414;23;20555;-84
2022/03/15 12:22:25;;;;;;;6.93;6.10;;;16.10;68.40;;;;;;12916890;23;20203;-85
2022/03/15 12:27:30;;;;;;;9.03;6.77;;;16.10;72.80;;;;;;12930441;23;20224;-84
2022/03/15 12:32:32;;;;;;;9.40;6.80;;;16.20;71.90;;;;;;12890977;23;20501;-83
2022/03/15 12:37:37;;;;;;;12.83;8.33;;;16.30;71.60;;;;;;12917258;23;20483;-83
2022/03/15 12:42:52;;;;;;;21.80;12.87;;;16.20;70.10;;;;;;12915813;23;20248;-83
2022/03/15 12:48:05;;;;;;;10.87;8.93;;;15.80;68.90;;;;;;12915292;23;20527;-83
2022/03/15 12:53:42;;;;;;;18.03;12.17;;;15.70;72.60;;;;;;12935211;23;20228;-83
2022/03/15 12:58:44;;;;;;;17.87;11.07;;;14.90;71.20;;;;;;12916965;23;20174;-84
2022/03/15 13:03:48;;;;;;;8.40;6.83;;;15.10;72.90;;;;;;12914914;23;20206;-84
2022/03/15 13:08:56;;;;;;;10.30;8.07;;;15.50;73.50;;;;;;12915212;23;20220;-83
2022/03/15 13:14:01;;;;;;;19.23;12.87;;;15.60;71.70;;;;;;12920596;23;20520;-84
2022/03/15 13:19:03;;;;;;;17.23;11.37;;;15.20;70.10;;;;;;12912423;23;20244;-83
2022/03/15 13:24:10;;;;;;;17.27;9.90;;;15.70;71.20;;;;;;12911760;23;20194;-84
2022/03/15 13:29:13;;;;;;;9.20;6.70;;;15.60;71.60;;;;;;12913970;23;20191;-84
2022/03/15 13:34:25;;;;;;;15.93;9.87;;;15.50;72.50;;;;;;12916018;23;20639;-84
2022/03/15 13:39:28;;;;;;;14.63;8.80;;;15.70;68.30;;;;;;12931844;23;20174;-84
2022/03/15 13:44:32;;;;;;;20.43;11.87;;;14.30;73.30;;;;;;12913895;23;20174;-84
2022/03/15 13:49:38;;;;;;;8.30;6.60;;;13.20;73.50;;;;;;12915202;23;20163;-81
2022/03/15 13:54:50;;;;;;;16.37;10.57;;;13.80;77.60;;;;;;12914000;23;20221;-81
2022/03/15 14:00:07;;;;;;;6.17;5.20;;;13.50;73.20;;;;;;12918525;23;20187;-82
2022/03/15 14:05:20;;;;;;;17.83;9.10;;;14.40;76.60;;;;;;12916933;23;20248;-81
2022/03/15 14:10:24;;;;;;;8.37;6.47;;;14.70;73.30;;;;;;12914828;23;20170;-81
2022/03/15 14:15:28;;;;;;;11.33;8.40;;;15.20;71.60;;;;;;12910252;23;20182;-82
2022/03/15 14:20:41;;;;;;;5.57;4.60;;;14.50;70.40;;;;;;12932801;23;20213;-81
2022/03/15 14:25:45;;;;;;;14.47;8.70;;;15.20;73.50;;;;;;12916640;23;20244;-81
2022/03/15 14:30:59;;;;;;;18.97;11.97;;;14.40;74.80;;;;;;12915102;23;20684;-80
2022/03/15 14:36:02;;;;;;;34.23;17.73;;;13.80;74.10;;;;;;12915626;23;20560;-81
2022/03/15 14:41:05;;;;;;;96.90;23.27;;;13.20;73.30;;;;;;12917782;23;20746;-81
2022/03/15 14:46:10;;;;;;;137.53;25.20;;;12.50;75.60;;;;;;12928485;23;20163;-81
2022/03/15 14:51:12;;;;;;;19.40;10.73;;;12.60;78.10;;;;;;12914565;23;20525;-81
2022/03/15 14:56:15;;;;;;;27.37;11.13;;;12.80;76.80;;;;;;12914507;23;20603;-81
2022/03/15 15:01:17;;;;;;;304.67;47.57;;;12.30;76.00;;;;;;12935132;23;20256;-81
2022/03/15 15:06:24;;;;;;;20.43;9.67;;;12.20;77.10;;;;;;12914473;23;20179;-83
2022/03/15 15:11:26;;;;;;;18.73;12.30;;;11.60;78.20;;;;;;12934447;23;20224;-82
2022/03/15 15:16:29;;;;;;;6.77;5.50;;;11.60;79.30;;;;;;12916136;23;20178;-90
2022/03/15 15:21:33;;;;;;;19.67;10.33;;;12.20;82.30;;;;;;12913311;23;20198;-82
2022/03/15 15:26:37;;;;;;;18.87;12.87;;;11.70;80.00;;;;;;12915916;23;20174;-83
2022/03/15 15:31:40;;;;;;;34.90;11.60;;;11.90;79.10;;;;;;12936693;23;20170;-83
2022/03/15 15:36:44;;;;;;;15.97;10.57;;;11.60;81.70;;;;;;12918753;23;20173;-83
2022/03/15 15:41:46;;;;;;;8.90;6.50;;;11.70;79.50;;;;;;12917517;23;20192;-83
2022/03/15 15:46:49;;;;;;;11.00;7.40;;;11.90;83.70;;;;;;12916176;23;20564;-83
2022/03/15 15:51:53;;;;;;;17.20;9.70;;;11.90;81.30;;;;;;12917518;23;20173;-82
2022/03/15 15:56:56;;;;;;;14.70;8.87;;;12.20;79.60;;;;;;12916170;23;20224;-82
2022/03/15 16:01:59;;;;;;;13.27;7.20;;;12.30;81.10;;;;;;12916740;23;20194;-83
2022/03/15 16:07:08;;;;;;;12.07;7.33;;;12.80;80.80;;;;;;12916069;23;20163;-83
2022/03/15 16:12:11;;;;;;;30.40;12.43;;;13.10;79.60;;;;;;12890104;23;20529;-82
2022/03/15 16:17:14;;;;;;;33.90;16.63;;;12.70;77.70;;;;;;12913493;23;20174;-83
2022/03/15 16:22:17;;;;;;;34.73;17.90;;;12.10;79.60;;;;;;12914780;23;20526;-83
2022/03/15 16:27:19;;;;;;;27.97;14.43;;;11.50;82.20;;;;;;12915505;23;20216;-83
2022/03/15 16:32:25;;;;;;;25.80;13.37;;;11.00;85.20;;;;;;12917357;23;20216;-83
2022/03/15 16:37:29;;;;;;;34.47;16.70;;;10.50;88.80;;;;;;12917403;23;20173;-82
2022/03/15 16:42:31;;;;;;;29.03;16.43;;;;;;;;;;12914689;23;20232;-83
2022/03/15 16:47:34;;;;;;;33.80;18.47;;;9.30;93.60;;;;;;12915607;23;20164;-83
2022/03/15 16:52:37;;;;;;;28.53;16.13;;;8.70;96.80;;;;;;12915000;23;20513;-82
2022/03/15 16:57:40;;;;;;;25.53;16.70;;;8.80;99.00;;;;;;12914567;23;20180;-82
2022/03/15 17:02:43;;;;;;;27.93;15.47;;;8.50;99.00;;;;;;12914508;23;20258;-82
2022/03/15 17:07:47;;;;;;;39.77;20.63;;;8.10;99.90;;;;;;12915381;23;20230;-82
2022/03/15 17:12:50;;;;;;;25.93;14.83;;;8.30;99.90;;;;;;12914446;23;20193;-83
2022/03/15 17:17:54;;;;;;;31.60;18.60;;;8.00;99.90;;;;;;12914440;23;20177;-82
2022/03/15 17:23:01;;;;;;;73.07;40.50;;;6.90;99.90;;;;;;12930914;22;20220;-82
2022/03/15 17:28:05;;;;;;;63.80;34.93;;;6.70;99.90;;;;;;12921606;23;20166;-82
2022/03/15 17:33:13;;;;;;;57.97;32.67;;;6.30;99.90;;;;;;12913562;23;20178;-82
2022/03/15 17:38:20;;;;;;;58.00;33.27;;;6.40;99.90;;;;;;12914568;23;20206;-82
2022/03/15 17:43:24;;;;;;;42.10;21.67;;;6.40;99.90;;;;;;12926018;23;20248;-82
2022/03/15 17:48:29;;;;;;;81.80;43.73;;;7.20;99.90;;;;;;12912982;23;20209;-82
2022/03/15 17:53:34;;;;;;;98.13;48.10;;;7.40;99.90;;;;;;12912519;23;20551;-82
2022/03/15 17:58:37;;;;;;;85.27;43.53;;;6.40;99.90;;;;;;12918312;23;20171;-83
2022/03/15 18:03:41;;;;;;;91.40;45.20;;;5.90;99.90;;;;;;12919705;23;20190;-83
2022/03/15 18:08:44;;;;;;;112.63;48.97;;;5.70;99.90;;;;;;12917394;23;20228;-83
2022/03/15 18:13:48;;;;;;;55.53;31.40;;;5.70;99.90;;;;;;12918031;23;20224;-82
2022/03/15 18:18:51;;;;;;;27.40;12.70;;;5.80;99.90;;;;;;12918826;23;20170;-82
2022/03/15 18:23:54;;;;;;;37.00;21.30;;;6.80;99.90;;;;;;12918349;23;20525;-82
2022/03/15 18:28:57;;;;;;;31.23;16.77;;;7.50;99.90;;;;;;12916001;23;20511;-82
2022/03/15 18:34:00;;;;;;;34.10;17.10;;;8.60;99.90;;;;;;12918391;23;20167;-82
2022/03/15 18:39:04;;;;;;;46.33;25.97;;;9.50;99.90;;;;;;12892452;23;20179;-83
2022/03/15 18:44:08;;;;;;;22.40;13.03;;;10.10;99.90;;;;;;12916473;23;20192;-82
2022/03/15 18:49:11;;;;;;;26.60;15.23;;;11.00;99.90;;;;;;12939156;23;20166;-95
2022/03/15 18:54:31;;;;;;;48.20;27.57;;;12.50;99.90;;;;;;12832704;23;20198;-80
2022/03/15 18:59:34;;;;;;;62.70;32.93;;;12.40;98.20;;;;;;12826952;23;20526;-80
2022/03/15 19:04:38;;;;;;;49.00;26.73;;;12.20;94.10;;;;;;12850384;23;20245;-80
2022/03/15 19:09:41;;;;;;;54.50;28.27;;;11.90;97.10;;;;;;12853982;23;20198;-79
2022/03/15 19:14:43;;;;;;;66.57;36.67;;;11.40;95.80;;;;;;12854619;23;20171;-80
2022/03/15 19:19:46;;;;;;;46.30;26.20;;;10.70;93.30;;;;;;12854664;23;20200;-80
2022/03/15 19:24:50;;;;;;;43.50;23.73;;;9.60;99.90;;;;;;12855665;23;20192;-79
2022/03/15 19:29:53;;;;;;;41.40;21.90;;;8.50;99.90;;;;;;12854746;23;20218;-81
2022/03/15 19:34:56;;;;;;;43.53;23.63;;;10.50;99.90;;;;;;12873237;23;20171;-80
2022/03/15 19:40:00;;;;;;;44.60;20.27;;;11.30;99.90;;;;;;12851579;23;20205;-80
2022/03/15 19:45:05;;;;;;;60.10;33.40;;;12.00;99.90;;;;;;12852622;23;20191;-80
2022/03/15 19:50:09;;;;;;;63.73;37.33;;;11.90;95.90;;;;;;12849747;23;20249;-80
2022/03/15 19:55:12;;;;;;;43.90;23.33;;;11.20;94.20;;;;;;12853303;23;20167;-81
2022/03/15 20:00:17;;;;;;;27.47;16.40;;;11.20;99.90;;;;;;12855209;23;20495;-80
2022/03/15 20:05:20;;;;;;;30.13;16.93;;;12.90;98.30;;;;;;12829146;23;20576;-81
2022/03/15 20:10:26;;;;;;;39.07;20.93;;;13.60;94.90;;;;;;12854939;23;20194;-81
2022/03/15 20:15:37;;;;;;;26.23;15.47;;;13.90;91.30;;;;;;12827793;23;20183;-81
2022/03/15 20:20:44;;;;;;;44.63;24.43;;;14.00;92.50;;;;;;12871119;23;20175;-80
2022/03/15 20:25:51;;;;;;;43.90;25.53;;;13.90;89.70;;;;;;12847526;23;20191;-80
2022/03/15 20:31:03;;;;;;;50.40;23.80;;;12.40;90.60;;;;;;12854984;23;20190;-80
2022/03/15 20:36:06;;;;;;;28.23;15.00;;;12.70;94.30;;;;;;12827889;23;20506;-81
2022/03/15 20:41:09;;;;;;;37.17;20.20;;;13.80;92.90;;;;;;12871451;23;20171;-81
2022/03/15 20:46:12;;;;;;;31.50;18.60;;;13.60;91.00;;;;;;12854597;23;20198;-80
2022/03/15 20:51:16;;;;;;;32.03;19.17;;;13.30;92.70;;;;;;12867999;23;20187;-81
2022/03/15 20:56:19;;;;;;;45.83;26.23;;;12.90;92.90;;;;;;12828077;23;20175;-81
2022/03/15 21:01:23;;;;;;;32.40;20.70;;;11.80;93.10;;;;;;12828385;23;20210;-81
2022/03/15 21:06:26;;;;;;;38.57;21.70;;;11.50;96.30;;;;;;12854714;23;20626;-80
2022/03/15 21:11:28;;;;;;;49.50;29.57;;;10.10;97.40;;;;;;12845595;22;20637;-88
2022/03/15 21:16:34;;;;;;;44.60;26.50;;;8.20;99.90;;;;;;12894128;23;20218;-90
2022/03/15 21:21:40;;;;;;;27.47;17.13;;;7.50;99.90;;;;;;12916584;23;20255;-89
2022/03/15 21:26:44;;;;;;;27.83;18.17;;;9.30;99.90;;;;;;12915083;23;20501;-91
2022/03/15 21:31:48;;;;;;;42.33;24.83;;;10.50;99.90;;;;;;12889113;23;20182;-89
2022/03/15 21:36:50;;;;;;;44.63;25.17;;;9.20;99.90;;;;;;12889699;23;20580;-88
2022/03/15 21:41:53;;;;;;;31.83;19.73;;;7.90;99.90;;;;;;12888582;23;20200;-88
2022/03/15 21:46:55;;;;;;;46.43;22.60;;;8.00;99.90;;;;;;12892084;23;20264;-80
2022/03/15 21:51:58;;;;;;;31.20;17.73;;;7.30;99.90;;;;;;12916761;23;20165;-86
2022/03/15 21:57:01;;;;;;;53.73;29.90;;;9.20;99.90;;;;;;12888535;23;20176;-85
2022/03/15 22:02:03;;;;;;;33.00;16.90;;;8.40;99.90;;;;;;12863635;23;20538;-85
2022/03/15 22:07:06;;;;;;;39.33;22.60;;;8.90;99.90;;;;;;12889128;23;20638;-84
2022/03/15 22:12:10;;;;;;;48.77;27.13;;;10.60;99.90;;;;;;12889760;23;20556;-83
2022/03/15 22:17:16;;;;;;;17.90;12.00;;;10.00;99.90;;;;;;12888536;23;20181;-84
2022/03/15 22:22:19;;;;;;;20.73;13.53;;;11.60;99.90;;;;;;12889982;23;20190;-81
2022/03/15 22:27:22;;;;;;;48.90;29.03;;;12.60;99.90;;;;;;12916539;23;20167;-84
2022/03/15 23:25:38;;;;;;;35.73;20.17;;;9.70;99.90;;;;;;12910916;23;20224;-80
2022/03/15 23:30:40;;;;;;;18.03;11.47;;;11.00;99.90;;;;;;12915568;23;20228;-80
2022/03/15 23:35:43;;;;;;;60.80;36.33;;;12.10;99.90;;;;;;12913034;23;20175;-80
2022/03/15 23:40:45;;;;;;;55.43;31.97;;;12.10;94.10;;;;;;12912845;23;20549;-81
2022/03/15 23:45:48;;;;;;;30.47;18.67;;;11.30;95.40;;;;;;12914259;23;20240;-80
2022/03/15 23:50:51;;;;;;;40.50;25.37;;;11.00;99.90;;;;;;12909989;23;20232;-80
2022/03/15 23:55:53;;;;;;;29.60;18.30;;;11.50;97.80;;;;;;12906469;23;20171;-81
